sensor_id;sensor_type;location;lat;lon;timestamp;P1;durP1;ratioP1;P2;durP2;ratioP2
4957;SDS011;2494;51.872;9.688;2023-08-20T00:02:35;46.37;;;27.83;;
4957;SDS011;2494;51.872;9.688;2023-08-20T00:05:22;37.10;;;27.27;;
4957;SDS011;2494;51.872;9.688;2023-08-20T00:08:08;38.43;;;30.20;;
4957;SDS011;2494;51.872;9.688;2023-08-20T00:10:53;40.47;;;28.90;;
4957;SDS011;2494;51.872;9.688;2023-08-20T00:13:38;37.60;;;26.43;;
4957;SDS011;2494;51.872;9.688;2023-08-20T00:16:24;37.40;;;28.33;;
4957;SDS011;2494;51.872;9.688;2023-08-20T00:19:09;33.90;;;27.10;;
4957;SDS011;2494;51.872;9.688;2023-08-20T00:21:54;35.47;;;27.17;;
4957;SDS011;2494;51.872;9.688;2023-08-20T00:24:41;33.00;;;26.37;;
4957;SDS011;2494;51.872;9.688;2023-08-20T00:27:26;35.47;;;25.10;;
4957;SDS011;2494;51.872;9.688;2023-08-20T00:30:11;30.20;;;25.93;;
4957;SDS011;2494;51.872;9.688;2023-08-20T00:32:56;28.87;;;25.10;;
4957;SDS011;2494;51.872;9.688;2023-08-20T00:35:41;30.93;;;24.07;;
4957;SDS011;2494;51.872;9.688;2023-08-20T00:38:26;36.33;;;24.17;;
4957;SDS011;2494;51.872;9.688;2023-08-20T00:41:12;31.00;;;24.20;;
4957;SDS011;2494;51.872;9.688;2023-08-20T00:43:57;29.17;;;24.77;;
4957;SDS011;2494;51.872;9.688;2023-08-20T00:46:42;29.23;;;22.67;;
4957;SDS011;2494;51.872;9.688;2023-08-20T00:49:27;32.37;;;25.37;;
4957;SDS011;2494;51.872;9.688;2023-08-20T00:52:12;37.33;;;24.27;;
4957;SDS011;2494;51.872;9.688;2023-08-20T00:54:58;27.53;;;23.27;;
4957;SDS011;2494;51.872;9.688;2023-08-20T00:57:45;29.40;;;24.20;;
4957;SDS011;2494;51.872;9.688;2023-08-20T01:00:30;31.43;;;23.60;;
4957;SDS011;2494;51.872;9.688;2023-08-20T01:03:15;30.60;;;24.30;;
4957;SDS011;2494;51.872;9.688;2023-08-20T01:06:07;24.23;;;21.63;;
4957;SDS011;2494;51.872;9.688;2023-08-20T01:08:56;31.90;;;23.23;;
4957;SDS011;2494;51.872;9.688;2023-08-20T01:11:45;27.13;;;22.90;;
4957;SDS011;2494;51.872;9.688;2023-08-20T01:14:32;79.50;;;25.80;;
4957;SDS011;2494;51.872;9.688;2023-08-20T01:17:17;27.60;;;24.57;;
4957;SDS011;2494;51.872;9.688;2023-08-20T01:20:02;28.90;;;23.93;;
4957;SDS011;2494;51.872;9.688;2023-08-20T01:23:10;32.73;;;24.37;;
4957;SDS011;2494;51.872;9.688;2023-08-20T01:26:07;29.80;;;24.40;;
4957;SDS011;2494;51.872;9.688;2023-08-20T01:28:54;28.37;;;24.87;;
4957;SDS011;2494;51.872;9.688;2023-08-20T01:31:39;24.60;;;21.93;;
4957;SDS011;2494;51.872;9.688;2023-08-20T01:34:25;23.87;;;21.37;;
4957;SDS011;2494;51.872;9.688;2023-08-20T01:37:10;30.33;;;23.20;;
4957;SDS011;2494;51.872;9.688;2023-08-20T01:39:55;24.43;;;21.83;;
4957;SDS011;2494;51.872;9.688;2023-08-20T01:42:40;24.87;;;22.27;;
4957;SDS011;2494;51.872;9.688;2023-08-20T01:45:26;23.93;;;21.10;;
4957;SDS011;2494;51.872;9.688;2023-08-20T01:48:11;25.27;;;22.60;;
4957;SDS011;2494;51.872;9.688;2023-08-20T01:50:56;27.50;;;22.30;;
4957;SDS011;2494;51.872;9.688;2023-08-20T01:53:41;26.20;;;23.50;;
4957;SDS011;2494;51.872;9.688;2023-08-20T01:56:26;29.57;;;25.30;;
4957;SDS011;2494;51.872;9.688;2023-08-20T01:59:11;30.00;;;26.60;;
4957;SDS011;2494;51.872;9.688;2023-08-20T02:01:58;29.47;;;26.20;;
4957;SDS011;2494;51.872;9.688;2023-08-20T02:04:42;30.10;;;26.60;;
4957;SDS011;2494;51.872;9.688;2023-08-20T02:07:27;32.30;;;27.70;;
4957;SDS011;2494;51.872;9.688;2023-08-20T02:10:12;30.37;;;26.17;;
4957;SDS011;2494;51.872;9.688;2023-08-20T02:12:57;30.30;;;27.10;;
4957;SDS011;2494;51.872;9.688;2023-08-20T02:15:42;37.17;;;27.20;;
4957;SDS011;2494;51.872;9.688;2023-08-20T02:18:28;31.90;;;26.57;;
4957;SDS011;2494;51.872;9.688;2023-08-20T02:21:14;30.13;;;26.60;;
4957;SDS011;2494;51.872;9.688;2023-08-20T02:23:59;34.83;;;28.33;;
4957;SDS011;2494;51.872;9.688;2023-08-20T02:26:44;317.93;;;47.00;;
4957;SDS011;2494;51.872;9.688;2023-08-20T02:29:29;38.47;;;28.07;;
4957;SDS011;2494;51.872;9.688;2023-08-20T02:32:13;33.10;;;26.93;;
4957;SDS011;2494;51.872;9.688;2023-08-20T02:35:00;28.80;;;24.87;;
4957;SDS011;2494;51.872;9.688;2023-08-20T02:37:45;34.27;;;28.67;;
4957;SDS011;2494;51.872;9.688;2023-08-20T02:40:29;33.97;;;28.10;;
4957;SDS011;2494;51.872;9.688;2023-08-20T02:43:15;35.43;;;28.67;;
4957;SDS011;2494;51.872;9.688;2023-08-20T02:45:59;36.50;;;30.47;;
4957;SDS011;2494;51.872;9.688;2023-08-20T02:48:44;40.57;;;29.80;;
4957;SDS011;2494;51.872;9.688;2023-08-20T02:51:31;42.60;;;29.07;;
4957;SDS011;2494;51.872;9.688;2023-08-20T02:54:16;39.77;;;30.70;;
4957;SDS011;2494;51.872;9.688;2023-08-20T02:57:00;42.50;;;32.00;;
4957;SDS011;2494;51.872;9.688;2023-08-20T02:59:46;40.67;;;31.60;;
4957;SDS011;2494;51.872;9.688;2023-08-20T03:02:31;41.53;;;33.57;;
4957;SDS011;2494;51.872;9.688;2023-08-20T03:05:17;45.97;;;36.70;;
4957;SDS011;2494;51.872;9.688;2023-08-20T03:08:04;46.37;;;35.60;;
4957;SDS011;2494;51.872;9.688;2023-08-20T03:10:49;39.60;;;34.17;;
4957;SDS011;2494;51.872;9.688;2023-08-20T03:13:34;44.40;;;33.50;;
4957;SDS011;2494;51.872;9.688;2023-08-20T03:16:19;46.30;;;33.80;;
4957;SDS011;2494;51.872;9.688;2023-08-20T03:19:04;31.37;;;27.90;;
4957;SDS011;2494;51.872;9.688;2023-08-20T03:21:49;30.13;;;25.27;;
4957;SDS011;2494;51.872;9.688;2023-08-20T03:24:35;26.90;;;23.23;;
4957;SDS011;2494;51.872;9.688;2023-08-20T03:27:20;28.77;;;22.10;;
4957;SDS011;2494;51.872;9.688;2023-08-20T03:30:06;23.40;;;21.10;;
4957;SDS011;2494;51.872;9.688;2023-08-20T03:32:51;22.20;;;20.00;;
4957;SDS011;2494;51.872;9.688;2023-08-20T03:35:36;20.03;;;18.03;;
4957;SDS011;2494;51.872;9.688;2023-08-20T03:38:21;19.47;;;17.37;;
4957;SDS011;2494;51.872;9.688;2023-08-20T03:41:07;18.30;;;16.43;;
4957;SDS011;2494;51.872;9.688;2023-08-20T03:43:52;16.07;;;13.70;;
4957;SDS011;2494;51.872;9.688;2023-08-20T03:46:37;16.30;;;14.60;;
4957;SDS011;2494;51.872;9.688;2023-08-20T03:49:22;15.20;;;13.20;;
4957;SDS011;2494;51.872;9.688;2023-08-20T03:52:07;19.27;;;12.80;;
4957;SDS011;2494;51.872;9.688;2023-08-20T03:54:52;13.03;;;11.90;;
4957;SDS011;2494;51.872;9.688;2023-08-20T03:57:38;11.67;;;10.67;;
4957;SDS011;2494;51.872;9.688;2023-08-20T04:00:23;10.30;;;9.40;;
4957;SDS011;2494;51.872;9.688;2023-08-20T04:03:08;12.80;;;11.43;;
4957;SDS011;2494;51.872;9.688;2023-08-20T04:05:53;11.43;;;10.20;;
4957;SDS011;2494;51.872;9.688;2023-08-20T04:08:38;10.67;;;9.63;;
4957;SDS011;2494;51.872;9.688;2023-08-20T04:11:23;11.00;;;10.00;;
4957;SDS011;2494;51.872;9.688;2023-08-20T04:14:09;10.57;;;9.67;;
4957;SDS011;2494;51.872;9.688;2023-08-20T04:16:54;15.13;;;8.60;;
4957;SDS011;2494;51.872;9.688;2023-08-20T04:19:39;8.90;;;8.00;;
4957;SDS011;2494;51.872;9.688;2023-08-20T04:22:24;7.80;;;7.07;;
4957;SDS011;2494;51.872;9.688;2023-08-20T04:25:09;7.57;;;5.50;;
4957;SDS011;2494;51.872;9.688;2023-08-20T04:27:54;5.50;;;5.00;;
4957;SDS011;2494;51.872;9.688;2023-08-20T04:30:40;4.90;;;3.60;;
4957;SDS011;2494;51.872;9.688;2023-08-20T04:33:25;7.23;;;4.67;;
4957;SDS011;2494;51.872;9.688;2023-08-20T04:36:10;4.70;;;4.30;;
4957;SDS011;2494;51.872;9.688;2023-08-20T04:38:56;5.20;;;4.70;;
4957;SDS011;2494;51.872;9.688;2023-08-20T04:41:41;5.93;;;3.83;;
4957;SDS011;2494;51.872;9.688;2023-08-20T04:44:26;6.33;;;4.63;;
4957;SDS011;2494;51.872;9.688;2023-08-20T04:47:12;5.53;;;4.30;;
4957;SDS011;2494;51.872;9.688;2023-08-20T04:49:57;5.53;;;5.20;;
4957;SDS011;2494;51.872;9.688;2023-08-20T04:52:43;5.70;;;4.90;;
4957;SDS011;2494;51.872;9.688;2023-08-20T04:55:28;10.23;;;4.53;;
4957;SDS011;2494;51.872;9.688;2023-08-20T04:58:13;8.77;;;4.67;;
4957;SDS011;2494;51.872;9.688;2023-08-20T05:00:58;4.60;;;4.30;;
4957;SDS011;2494;51.872;9.688;2023-08-20T05:03:44;3.80;;;3.50;;
4957;SDS011;2494;51.872;9.688;2023-08-20T05:06:29;5.67;;;4.30;;
4957;SDS011;2494;51.872;9.688;2023-08-20T05:09:15;5.93;;;4.40;;
4957;SDS011;2494;51.872;9.688;2023-08-20T05:12:00;6.13;;;4.40;;
4957;SDS011;2494;51.872;9.688;2023-08-20T05:14:46;6.63;;;4.60;;
4957;SDS011;2494;51.872;9.688;2023-08-20T05:17:31;5.30;;;3.93;;
4957;SDS011;2494;51.872;9.688;2023-08-20T05:20:17;5.47;;;5.00;;
4957;SDS011;2494;51.872;9.688;2023-08-20T05:23:02;4.77;;;3.60;;
4957;SDS011;2494;51.872;9.688;2023-08-20T05:25:49;7.30;;;3.93;;
4957;SDS011;2494;51.872;9.688;2023-08-20T05:28:34;4.60;;;3.60;;
4957;SDS011;2494;51.872;9.688;2023-08-20T05:31:20;3.47;;;3.27;;
4957;SDS011;2494;51.872;9.688;2023-08-20T05:34:06;5.30;;;3.60;;
4957;SDS011;2494;51.872;9.688;2023-08-20T05:36:52;4.13;;;3.83;;
4957;SDS011;2494;51.872;9.688;2023-08-20T05:39:41;5.40;;;4.53;;
4957;SDS011;2494;51.872;9.688;2023-08-20T05:42:26;6.23;;;3.93;;
4957;SDS011;2494;51.872;9.688;2023-08-20T05:45:11;8.40;;;4.60;;
4957;SDS011;2494;51.872;9.688;2023-08-20T05:47:56;4.50;;;4.20;;
4957;SDS011;2494;51.872;9.688;2023-08-20T05:50:41;5.43;;;3.77;;
4957;SDS011;2494;51.872;9.688;2023-08-20T05:53:28;4.13;;;3.77;;
4957;SDS011;2494;51.872;9.688;2023-08-20T05:56:13;5.43;;;3.20;;
4957;SDS011;2494;51.872;9.688;2023-08-20T05:58:58;6.43;;;3.97;;
4957;SDS011;2494;51.872;9.688;2023-08-20T06:01:43;4.13;;;3.20;;
4957;SDS011;2494;51.872;9.688;2023-08-20T06:04:29;3.40;;;3.17;;
4957;SDS011;2494;51.872;9.688;2023-08-20T06:07:14;4.73;;;3.00;;
4957;SDS011;2494;51.872;9.688;2023-08-20T06:10:00;4.43;;;4.03;;
4957;SDS011;2494;51.872;9.688;2023-08-20T06:12:46;3.53;;;2.90;;
4957;SDS011;2494;51.872;9.688;2023-08-20T06:15:31;4.20;;;3.47;;
4957;SDS011;2494;51.872;9.688;2023-08-20T06:18:16;2.60;;;2.40;;
4957;SDS011;2494;51.872;9.688;2023-08-20T06:21:01;3.43;;;2.70;;
4957;SDS011;2494;51.872;9.688;2023-08-20T06:23:46;3.80;;;2.13;;
4957;SDS011;2494;51.872;9.688;2023-08-20T06:26:32;2.90;;;2.27;;
4957;SDS011;2494;51.872;9.688;2023-08-20T06:29:17;5.00;;;2.73;;
4957;SDS011;2494;51.872;9.688;2023-08-20T06:32:03;2.93;;;2.10;;
4957;SDS011;2494;51.872;9.688;2023-08-20T06:34:48;2.57;;;2.07;;
4957;SDS011;2494;51.872;9.688;2023-08-20T06:37:33;5.33;;;2.33;;
4957;SDS011;2494;51.872;9.688;2023-08-20T06:40:18;4.30;;;1.87;;
4957;SDS011;2494;51.872;9.688;2023-08-20T06:43:05;3.77;;;2.00;;
4957;SDS011;2494;51.872;9.688;2023-08-20T06:45:50;3.93;;;2.03;;
4957;SDS011;2494;51.872;9.688;2023-08-20T06:48:36;2.90;;;1.80;;
4957;SDS011;2494;51.872;9.688;2023-08-20T06:51:21;3.63;;;1.60;;
4957;SDS011;2494;51.872;9.688;2023-08-20T06:54:07;2.53;;;1.60;;
4957;SDS011;2494;51.872;9.688;2023-08-20T06:56:52;3.00;;;1.90;;
4957;SDS011;2494;51.872;9.688;2023-08-20T06:59:38;2.10;;;1.87;;
4957;SDS011;2494;51.872;9.688;2023-08-20T07:02:24;3.07;;;2.10;;
4957;SDS011;2494;51.872;9.688;2023-08-20T07:05:09;2.57;;;2.37;;
4957;SDS011;2494;51.872;9.688;2023-08-20T07:07:54;3.00;;;2.37;;
4957;SDS011;2494;51.872;9.688;2023-08-20T07:10:39;3.93;;;2.47;;
4957;SDS011;2494;51.872;9.688;2023-08-20T07:13:24;3.70;;;1.97;;
4957;SDS011;2494;51.872;9.688;2023-08-20T07:16:11;2.67;;;2.20;;
4957;SDS011;2494;51.872;9.688;2023-08-20T07:18:56;3.00;;;2.67;;
4957;SDS011;2494;51.872;9.688;2023-08-20T07:21:41;3.47;;;2.67;;
4957;SDS011;2494;51.872;9.688;2023-08-20T07:24:26;4.50;;;2.20;;
4957;SDS011;2494;51.872;9.688;2023-08-20T07:27:12;3.50;;;2.37;;
4957;SDS011;2494;51.872;9.688;2023-08-20T07:29:57;4.00;;;2.67;;
4957;SDS011;2494;51.872;9.688;2023-08-20T07:32:43;6.43;;;2.67;;
4957;SDS011;2494;51.872;9.688;2023-08-20T07:35:29;3.10;;;2.60;;
4957;SDS011;2494;51.872;9.688;2023-08-20T07:38:14;3.87;;;3.53;;
4957;SDS011;2494;51.872;9.688;2023-08-20T07:40:59;2.73;;;2.40;;
4957;SDS011;2494;51.872;9.688;2023-08-20T07:43:44;2.20;;;2.10;;
4957;SDS011;2494;51.872;9.688;2023-08-20T07:46:29;2.60;;;2.40;;
4957;SDS011;2494;51.872;9.688;2023-08-20T07:49:15;3.70;;;2.40;;
4957;SDS011;2494;51.872;9.688;2023-08-20T07:52:00;3.13;;;2.93;;
4957;SDS011;2494;51.872;9.688;2023-08-20T07:54:51;4.00;;;2.40;;
4957;SDS011;2494;51.872;9.688;2023-08-20T07:57:37;3.30;;;3.00;;
4957;SDS011;2494;51.872;9.688;2023-08-20T08:00:22;3.30;;;2.90;;
4957;SDS011;2494;51.872;9.688;2023-08-20T08:03:07;3.73;;;3.03;;
4957;SDS011;2494;51.872;9.688;2023-08-20T08:05:54;3.87;;;2.90;;
4957;SDS011;2494;51.872;9.688;2023-08-20T08:08:42;3.87;;;3.10;;
4957;SDS011;2494;51.872;9.688;2023-08-20T08:11:27;3.93;;;2.60;;
4957;SDS011;2494;51.872;9.688;2023-08-20T08:14:12;3.90;;;3.53;;
4957;SDS011;2494;51.872;9.688;2023-08-20T08:16:57;5.07;;;3.97;;
4957;SDS011;2494;51.872;9.688;2023-08-20T08:19:42;4.97;;;3.70;;
4957;SDS011;2494;51.872;9.688;2023-08-20T08:22:29;5.53;;;3.43;;
4957;SDS011;2494;51.872;9.688;2023-08-20T08:25:15;5.13;;;4.70;;
4957;SDS011;2494;51.872;9.688;2023-08-20T08:28:00;5.07;;;4.60;;
4957;SDS011;2494;51.872;9.688;2023-08-20T08:30:45;4.27;;;3.97;;
4957;SDS011;2494;51.872;9.688;2023-08-20T08:33:30;4.40;;;4.00;;
4957;SDS011;2494;51.872;9.688;2023-08-20T08:36:15;6.63;;;4.50;;
4957;SDS011;2494;51.872;9.688;2023-08-20T08:39:03;4.30;;;4.03;;
4957;SDS011;2494;51.872;9.688;2023-08-20T08:41:48;4.40;;;4.10;;
4957;SDS011;2494;51.872;9.688;2023-08-20T08:44:34;4.80;;;4.37;;
4957;SDS011;2494;51.872;9.688;2023-08-20T08:47:21;5.60;;;5.10;;
4957;SDS011;2494;51.872;9.688;2023-08-20T08:50:07;4.50;;;4.10;;
4957;SDS011;2494;51.872;9.688;2023-08-20T08:52:53;6.23;;;5.73;;
4957;SDS011;2494;51.872;9.688;2023-08-20T08:55:41;6.10;;;4.60;;
4957;SDS011;2494;51.872;9.688;2023-08-20T08:58:26;6.27;;;4.70;;
4957;SDS011;2494;51.872;9.688;2023-08-20T09:01:11;4.63;;;4.27;;
4957;SDS011;2494;51.872;9.688;2023-08-20T09:03:56;4.47;;;4.07;;
4957;SDS011;2494;51.872;9.688;2023-08-20T09:06:45;3.93;;;3.63;;
4957;SDS011;2494;51.872;9.688;2023-08-20T09:09:31;4.90;;;4.50;;
4957;SDS011;2494;51.872;9.688;2023-08-20T09:12:19;4.20;;;3.93;;
4957;SDS011;2494;51.872;9.688;2023-08-20T09:15:09;5.37;;;4.60;;
4957;SDS011;2494;51.872;9.688;2023-08-20T09:17:54;6.50;;;6.00;;
4957;SDS011;2494;51.872;9.688;2023-08-20T09:20:39;6.50;;;5.60;;
4957;SDS011;2494;51.872;9.688;2023-08-20T09:23:26;6.53;;;5.93;;
4957;SDS011;2494;51.872;9.688;2023-08-20T09:26:11;7.80;;;7.30;;
4957;SDS011;2494;51.872;9.688;2023-08-20T09:28:59;7.87;;;7.40;;
4957;SDS011;2494;51.872;9.688;2023-08-20T09:31:44;9.57;;;8.77;;
4957;SDS011;2494;51.872;9.688;2023-08-20T09:34:35;9.57;;;8.87;;
4957;SDS011;2494;51.872;9.688;2023-08-20T09:37:21;10.50;;;9.60;;
4957;SDS011;2494;51.872;9.688;2023-08-20T09:40:07;11.67;;;10.70;;
4957;SDS011;2494;51.872;9.688;2023-08-20T09:42:52;9.97;;;9.03;;
4957;SDS011;2494;51.872;9.688;2023-08-20T09:45:39;10.20;;;9.30;;
4957;SDS011;2494;51.872;9.688;2023-08-20T09:48:25;11.83;;;9.60;;
4957;SDS011;2494;51.872;9.688;2023-08-20T09:51:12;9.77;;;9.07;;
4957;SDS011;2494;51.872;9.688;2023-08-20T09:54:00;9.87;;;9.20;;
4957;SDS011;2494;51.872;9.688;2023-08-20T09:56:46;10.77;;;9.97;;
4957;SDS011;2494;51.872;9.688;2023-08-20T09:59:34;9.87;;;9.07;;
4957;SDS011;2494;51.872;9.688;2023-08-20T10:02:21;9.53;;;8.83;;
4957;SDS011;2494;51.872;9.688;2023-08-20T10:05:07;10.00;;;9.20;;
4957;SDS011;2494;51.872;9.688;2023-08-20T10:07:52;9.43;;;8.43;;
4957;SDS011;2494;51.872;9.688;2023-08-20T10:10:38;7.87;;;7.47;;
4957;SDS011;2494;51.872;9.688;2023-08-20T10:13:23;8.80;;;8.10;;
4957;SDS011;2494;51.872;9.688;2023-08-20T10:16:08;7.33;;;6.60;;
4957;SDS011;2494;51.872;9.688;2023-08-20T10:18:58;8.00;;;7.40;;
4957;SDS011;2494;51.872;9.688;2023-08-20T10:21:46;8.60;;;7.90;;
4957;SDS011;2494;51.872;9.688;2023-08-20T10:24:39;8.93;;;8.40;;
4957;SDS011;2494;51.872;9.688;2023-08-20T10:27:25;7.90;;;7.43;;
4957;SDS011;2494;51.872;9.688;2023-08-20T10:30:11;8.87;;;8.07;;
4957;SDS011;2494;51.872;9.688;2023-08-20T10:32:59;7.60;;;7.00;;
4957;SDS011;2494;51.872;9.688;2023-08-20T10:35:47;7.33;;;6.73;;
4957;SDS011;2494;51.872;9.688;2023-08-20T10:38:35;7.57;;;6.90;;
4957;SDS011;2494;51.872;9.688;2023-08-20T10:41:21;6.60;;;6.20;;
4957;SDS011;2494;51.872;9.688;2023-08-20T10:44:09;7.47;;;6.60;;
4957;SDS011;2494;51.872;9.688;2023-08-20T10:46:53;6.17;;;5.83;;
4957;SDS011;2494;51.872;9.688;2023-08-20T10:49:38;6.10;;;5.70;;
4957;SDS011;2494;51.872;9.688;2023-08-20T10:52:25;7.13;;;6.50;;
4957;SDS011;2494;51.872;9.688;2023-08-20T10:55:17;6.63;;;6.10;;
4957;SDS011;2494;51.872;9.688;2023-08-20T10:58:07;5.97;;;5.57;;
4957;SDS011;2494;51.872;9.688;2023-08-20T11:03:52;7.70;;;7.10;;
4957;SDS011;2494;51.872;9.688;2023-08-20T11:06:37;6.77;;;6.33;;
4957;SDS011;2494;51.872;9.688;2023-08-20T11:09:26;6.10;;;5.70;;
4957;SDS011;2494;51.872;9.688;2023-08-20T11:12:14;6.53;;;6.00;;
4957;SDS011;2494;51.872;9.688;2023-08-20T11:15:00;7.50;;;7.00;;
4957;SDS011;2494;51.872;9.688;2023-08-20T11:17:47;7.37;;;6.80;;
4957;SDS011;2494;51.872;9.688;2023-08-20T11:20:33;7.03;;;6.53;;
4957;SDS011;2494;51.872;9.688;2023-08-20T11:23:19;8.00;;;7.23;;
4957;SDS011;2494;51.872;9.688;2023-08-20T11:26:07;6.67;;;6.20;;
4957;SDS011;2494;51.872;9.688;2023-08-20T11:28:52;7.00;;;6.40;;
4957;SDS011;2494;51.872;9.688;2023-08-20T11:31:38;7.30;;;5.93;;
4957;SDS011;2494;51.872;9.688;2023-08-20T11:34:24;6.33;;;5.90;;
4957;SDS011;2494;51.872;9.688;2023-08-20T11:37:09;5.83;;;5.43;;
4957;SDS011;2494;51.872;9.688;2023-08-20T11:39:54;7.07;;;6.53;;
4957;SDS011;2494;51.872;9.688;2023-08-20T11:42:41;6.83;;;6.43;;
4957;SDS011;2494;51.872;9.688;2023-08-20T11:45:26;6.30;;;5.77;;
4957;SDS011;2494;51.872;9.688;2023-08-20T11:48:12;5.73;;;5.33;;
4957;SDS011;2494;51.872;9.688;2023-08-20T11:50:57;6.20;;;5.70;;
4957;SDS011;2494;51.872;9.688;2023-08-20T11:53:43;6.20;;;5.70;;
4957;SDS011;2494;51.872;9.688;2023-08-20T11:56:29;6.27;;;5.77;;
4957;SDS011;2494;51.872;9.688;2023-08-20T11:59:16;5.67;;;5.37;;
4957;SDS011;2494;51.872;9.688;2023-08-20T12:02:02;5.50;;;5.10;;
4957;SDS011;2494;51.872;9.688;2023-08-20T12:04:49;6.00;;;5.70;;
4957;SDS011;2494;51.872;9.688;2023-08-20T12:07:34;5.93;;;5.27;;
4957;SDS011;2494;51.872;9.688;2023-08-20T12:10:20;6.20;;;5.80;;
4957;SDS011;2494;51.872;9.688;2023-08-20T12:13:08;6.27;;;5.80;;
4957;SDS011;2494;51.872;9.688;2023-08-20T12:15:55;6.50;;;6.07;;
4957;SDS011;2494;51.872;9.688;2023-08-20T12:18:40;5.90;;;5.33;;
4957;SDS011;2494;51.872;9.688;2023-08-20T12:21:25;6.50;;;6.17;;
4957;SDS011;2494;51.872;9.688;2023-08-20T12:24:11;5.57;;;5.33;;
4957;SDS011;2494;51.872;9.688;2023-08-20T12:26:56;6.40;;;5.60;;
4957;SDS011;2494;51.872;9.688;2023-08-20T12:29:41;5.63;;;5.33;;
4957;SDS011;2494;51.872;9.688;2023-08-20T12:32:29;6.13;;;5.63;;
4957;SDS011;2494;51.872;9.688;2023-08-20T12:35:14;6.03;;;5.73;;
4957;SDS011;2494;51.872;9.688;2023-08-20T12:37:59;6.60;;;6.20;;
4957;SDS011;2494;51.872;9.688;2023-08-20T12:40:45;5.97;;;5.50;;
4957;SDS011;2494;51.872;9.688;2023-08-20T12:43:30;6.60;;;6.00;;
4957;SDS011;2494;51.872;9.688;2023-08-20T12:46:16;6.40;;;6.00;;
4957;SDS011;2494;51.872;9.688;2023-08-20T12:49:02;6.67;;;6.20;;
4957;SDS011;2494;51.872;9.688;2023-08-20T12:51:47;6.60;;;6.20;;
4957;SDS011;2494;51.872;9.688;2023-08-20T12:54:33;6.70;;;6.30;;
4957;SDS011;2494;51.872;9.688;2023-08-20T12:57:18;6.23;;;5.90;;
4957;SDS011;2494;51.872;9.688;2023-08-20T13:00:04;6.10;;;5.70;;
4957;SDS011;2494;51.872;9.688;2023-08-20T13:02:55;6.67;;;6.17;;
4957;SDS011;2494;51.872;9.688;2023-08-20T13:05:43;6.87;;;6.27;;
4957;SDS011;2494;51.872;9.688;2023-08-20T13:08:28;7.73;;;7.23;;
4957;SDS011;2494;51.872;9.688;2023-08-20T13:11:16;6.67;;;6.10;;
4957;SDS011;2494;51.872;9.688;2023-08-20T13:14:02;6.30;;;5.93;;
4957;SDS011;2494;51.872;9.688;2023-08-20T13:16:47;6.53;;;6.03;;
4957;SDS011;2494;51.872;9.688;2023-08-20T13:19:33;7.47;;;6.97;;
4957;SDS011;2494;51.872;9.688;2023-08-20T13:22:19;6.43;;;5.90;;
4957;SDS011;2494;51.872;9.688;2023-08-20T13:25:05;7.50;;;6.70;;
4957;SDS011;2494;51.872;9.688;2023-08-20T13:27:50;7.10;;;6.40;;
4957;SDS011;2494;51.872;9.688;2023-08-20T13:30:36;5.73;;;5.43;;
4957;SDS011;2494;51.872;9.688;2023-08-20T13:33:21;5.77;;;5.37;;
4957;SDS011;2494;51.872;9.688;2023-08-20T13:36:06;6.70;;;5.23;;
4957;SDS011;2494;51.872;9.688;2023-08-20T13:38:53;5.33;;;5.13;;
4957;SDS011;2494;51.872;9.688;2023-08-20T13:41:38;5.20;;;4.60;;
4957;SDS011;2494;51.872;9.688;2023-08-20T13:44:23;5.70;;;5.30;;
4957;SDS011;2494;51.872;9.688;2023-08-20T13:47:09;5.57;;;5.27;;
4957;SDS011;2494;51.872;9.688;2023-08-20T13:49:57;6.27;;;5.97;;
4957;SDS011;2494;51.872;9.688;2023-08-20T13:52:43;5.60;;;5.20;;
4957;SDS011;2494;51.872;9.688;2023-08-20T13:55:30;5.80;;;5.43;;
4957;SDS011;2494;51.872;9.688;2023-08-20T13:58:15;6.37;;;5.97;;
4957;SDS011;2494;51.872;9.688;2023-08-20T14:01:00;5.23;;;4.93;;
4957;SDS011;2494;51.872;9.688;2023-08-20T14:03:47;5.67;;;5.27;;
4957;SDS011;2494;51.872;9.688;2023-08-20T14:06:33;5.70;;;5.30;;
4957;SDS011;2494;51.872;9.688;2023-08-20T14:09:19;5.57;;;5.00;;
4957;SDS011;2494;51.872;9.688;2023-08-20T14:12:06;5.67;;;5.27;;
4957;SDS011;2494;51.872;9.688;2023-08-20T14:14:51;10.43;;;6.63;;
4957;SDS011;2494;51.872;9.688;2023-08-20T14:17:36;6.60;;;5.60;;
4957;SDS011;2494;51.872;9.688;2023-08-20T14:20:21;5.57;;;5.27;;
4957;SDS011;2494;51.872;9.688;2023-08-20T14:23:06;5.23;;;4.93;;
4957;SDS011;2494;51.872;9.688;2023-08-20T14:25:51;5.80;;;5.40;;
4957;SDS011;2494;51.872;9.688;2023-08-20T14:28:39;5.90;;;5.47;;
4957;SDS011;2494;51.872;9.688;2023-08-20T14:31:24;5.90;;;5.47;;
4957;SDS011;2494;51.872;9.688;2023-08-20T14:34:10;4.50;;;4.17;;
4957;SDS011;2494;51.872;9.688;2023-08-20T14:36:55;5.77;;;5.47;;
4957;SDS011;2494;51.872;9.688;2023-08-20T14:39:41;5.27;;;4.97;;
4957;SDS011;2494;51.872;9.688;2023-08-20T14:42:26;7.23;;;5.73;;
4957;SDS011;2494;51.872;9.688;2023-08-20T14:45:13;5.67;;;4.80;;
4957;SDS011;2494;51.872;9.688;2023-08-20T14:47:58;6.03;;;5.60;;
4957;SDS011;2494;51.872;9.688;2023-08-20T14:50:43;6.10;;;5.60;;
4957;SDS011;2494;51.872;9.688;2023-08-20T14:53:29;6.03;;;5.43;;
4957;SDS011;2494;51.872;9.688;2023-08-20T14:56:14;6.33;;;5.93;;
4957;SDS011;2494;51.872;9.688;2023-08-20T14:58:59;7.30;;;6.63;;
4957;SDS011;2494;51.872;9.688;2023-08-20T15:01:46;6.67;;;6.20;;
4957;SDS011;2494;51.872;9.688;2023-08-20T15:04:31;7.33;;;5.50;;
4957;SDS011;2494;51.872;9.688;2023-08-20T15:07:16;6.17;;;5.60;;
4957;SDS011;2494;51.872;9.688;2023-08-20T15:10:01;6.20;;;5.90;;
4957;SDS011;2494;51.872;9.688;2023-08-20T15:12:46;7.63;;;6.50;;
4957;SDS011;2494;51.872;9.688;2023-08-20T15:15:31;6.07;;;5.47;;
4957;SDS011;2494;51.872;9.688;2023-08-20T15:18:18;6.30;;;5.90;;
4957;SDS011;2494;51.872;9.688;2023-08-20T15:21:03;6.40;;;6.00;;
4957;SDS011;2494;51.872;9.688;2023-08-20T15:23:48;6.90;;;5.33;;
4957;SDS011;2494;51.872;9.688;2023-08-20T15:26:33;6.20;;;5.80;;
4957;SDS011;2494;51.872;9.688;2023-08-20T15:29:20;6.07;;;5.77;;
4957;SDS011;2494;51.872;9.688;2023-08-20T15:32:05;6.20;;;5.80;;
4957;SDS011;2494;51.872;9.688;2023-08-20T15:34:52;6.77;;;6.27;;
4957;SDS011;2494;51.872;9.688;2023-08-20T15:37:37;5.90;;;5.40;;
4957;SDS011;2494;51.872;9.688;2023-08-20T15:40:22;11.20;;;6.00;;
4957;SDS011;2494;51.872;9.688;2023-08-20T15:43:07;6.10;;;5.73;;
4957;SDS011;2494;51.872;9.688;2023-08-20T15:45:52;6.70;;;6.20;;
4957;SDS011;2494;51.872;9.688;2023-08-20T15:48:37;6.60;;;6.20;;
4957;SDS011;2494;51.872;9.688;2023-08-20T15:51:24;6.03;;;5.53;;
4957;SDS011;2494;51.872;9.688;2023-08-20T15:54:13;5.73;;;5.43;;
4957;SDS011;2494;51.872;9.688;2023-08-20T15:56:58;6.60;;;6.20;;
4957;SDS011;2494;51.872;9.688;2023-08-20T15:59:43;6.50;;;5.90;;
4957;SDS011;2494;51.872;9.688;2023-08-20T16:02:29;6.43;;;5.93;;
4957;SDS011;2494;51.872;9.688;2023-08-20T16:05:19;5.83;;;5.43;;
4957;SDS011;2494;51.872;9.688;2023-08-20T16:08:05;6.27;;;5.87;;
4957;SDS011;2494;51.872;9.688;2023-08-20T16:10:50;5.60;;;5.20;;
4957;SDS011;2494;51.872;9.688;2023-08-20T16:13:36;6.13;;;5.73;;
4957;SDS011;2494;51.872;9.688;2023-08-20T16:16:21;6.83;;;6.33;;
4957;SDS011;2494;51.872;9.688;2023-08-20T16:19:06;6.07;;;5.77;;
4957;SDS011;2494;51.872;9.688;2023-08-20T16:21:51;6.77;;;6.37;;
4957;SDS011;2494;51.872;9.688;2023-08-20T16:24:38;6.37;;;5.87;;
4957;SDS011;2494;51.872;9.688;2023-08-20T16:27:23;6.47;;;5.80;;
4957;SDS011;2494;51.872;9.688;2023-08-20T16:30:08;6.53;;;5.30;;
4957;SDS011;2494;51.872;9.688;2023-08-20T16:32:55;7.20;;;6.33;;
4957;SDS011;2494;51.872;9.688;2023-08-20T16:35:40;6.90;;;6.40;;
4957;SDS011;2494;51.872;9.688;2023-08-20T16:38:25;6.87;;;6.03;;
4957;SDS011;2494;51.872;9.688;2023-08-20T16:41:15;6.87;;;6.37;;
4957;SDS011;2494;51.872;9.688;2023-08-20T16:44:00;6.90;;;6.33;;
4957;SDS011;2494;51.872;9.688;2023-08-20T16:46:45;5.67;;;5.20;;
4957;SDS011;2494;51.872;9.688;2023-08-20T16:49:30;7.23;;;6.53;;
4957;SDS011;2494;51.872;9.688;2023-08-20T16:52:15;6.23;;;5.57;;
4957;SDS011;2494;51.872;9.688;2023-08-20T16:55:02;6.50;;;6.00;;
4957;SDS011;2494;51.872;9.688;2023-08-20T16:57:49;7.23;;;6.60;;
4957;SDS011;2494;51.872;9.688;2023-08-20T17:00:34;11.23;;;6.40;;
4957;SDS011;2494;51.872;9.688;2023-08-20T17:03:19;6.60;;;6.17;;
4957;SDS011;2494;51.872;9.688;2023-08-20T17:06:05;6.57;;;5.93;;